sensor_id;sensor_type;location;lat;lon;timestamp;temperature;humidity
37310;DHT22;23195;47.744;7.358;2023-11-21T00:01:41;9.50;99.90
37310;DHT22;23195;47.744;7.358;2023-11-21T00:04:07;9.50;99.90
37310;DHT22;23195;47.744;7.358;2023-11-21T00:06:33;9.50;99.90
37310;DHT22;23195;47.744;7.358;2023-11-21T00:08:59;9.40;99.90
37310;DHT22;23195;47.744;7.358;2023-11-21T00:11:28;8.90;99.90
37310;DHT22;23195;47.744;7.358;2023-11-21T00:13:54;9.50;99.90
37310;DHT22;23195;47.744;7.358;2023-11-21T00:16:20;9.40;99.90
37310;DHT22;23195;47.744;7.358;2023-11-21T00:18:47;9.40;99.90
37310;DHT22;23195;47.744;7.358;2023-11-21T00:21:13;9.30;99.90
37310;DHT22;23195;47.744;7.358;2023-11-21T00:23:39;9.20;99.90
37310;DHT22;23195;47.744;7.358;2023-11-21T00:26:07;9.30;99.90
37310;DHT22;23195;47.744;7.358;2023-11-21T00:28:36;9.20;99.90
37310;DHT22;23195;47.744;7.358;2023-11-21T00:31:01;9.20;99.90
37310;DHT22;23195;47.744;7.358;2023-11-21T00:33:27;9.10;99.90
37310;DHT22;23195;47.744;7.358;2023-11-21T00:35:53;9.10;99.90
37310;DHT22;23195;47.744;7.358;2023-11-21T00:38:22;9.10;99.90
37310;DHT22;23195;47.744;7.358;2023-11-21T00:40:48;9.10;99.90
37310;DHT22;23195;47.744;7.358;2023-11-21T00:43:13;9.10;99.90
37310;DHT22;23195;47.744;7.358;2023-11-21T00:45:39;9.00;99.90
37310;DHT22;23195;47.744;7.358;2023-11-21T00:48:05;9.00;99.90
37310;DHT22;23195;47.744;7.358;2023-11-21T00:50:31;8.90;99.90
37310;DHT22;23195;47.744;7.358;2023-11-21T00:52:57;8.90;99.90
37310;DHT22;23195;47.744;7.358;2023-11-21T00:55:23;8.90;99.90
37310;DHT22;23195;47.744;7.358;2023-11-21T00:57:49;8.80;99.90
37310;DHT22;23195;47.744;7.358;2023-11-21T01:00:15;8.70;99.90
37310;DHT22;23195;47.744;7.358;2023-11-21T01:02:45;8.70;99.90
37310;DHT22;23195;47.744;7.358;2023-11-21T01:05:12;8.60;99.90
37310;DHT22;23195;47.744;7.358;2023-11-21T01:07:38;8.60;99.90
37310;DHT22;23195;47.744;7.358;2023-11-21T01:10:04;8.60;99.90
37310;DHT22;23195;47.744;7.358;2023-11-21T01:12:34;8.60;99.90
37310;DHT22;23195;47.744;7.358;2023-11-21T01:15:01;8.50;99.90
37310;DHT22;23195;47.744;7.358;2023-11-21T01:17:29;8.50;99.90
37310;DHT22;23195;47.744;7.358;2023-11-21T01:19:55;8.40;99.90
37310;DHT22;23195;47.744;7.358;2023-11-21T01:22:24;8.40;99.90
37310;DHT22;23195;47.744;7.358;2023-11-21T01:24:52;8.60;99.90
37310;DHT22;23195;47.744;7.358;2023-11-21T01:27:18;8.50;99.90
37310;DHT22;23195;47.744;7.358;2023-11-21T01:29:44;8.60;99.90
37310;DHT22;23195;47.744;7.358;2023-11-21T01:32:10;8.70;99.90
37310;DHT22;23195;47.744;7.358;2023-11-21T01:34:36;8.70;99.90
37310;DHT22;23195;47.744;7.358;2023-11-21T01:37:02;8.80;99.90
37310;DHT22;23195;47.744;7.358;2023-11-21T01:39:33;8.80;99.90
37310;DHT22;23195;47.744;7.358;2023-11-21T01:41:58;8.80;99.90
37310;DHT22;23195;47.744;7.358;2023-11-21T01:44:24;8.80;99.90
37310;DHT22;23195;47.744;7.358;2023-11-21T01:46:50;8.90;99.90
37310;DHT22;23195;47.744;7.358;2023-11-21T01:49:17;9.00;99.90
37310;DHT22;23195;47.744;7.358;2023-11-21T01:51:48;8.90;99.90
37310;DHT22;23195;47.744;7.358;2023-11-21T01:54:16;9.00;99.90
37310;DHT22;23195;47.744;7.358;2023-11-21T01:56:46;9.00;99.90
37310;DHT22;23195;47.744;7.358;2023-11-21T01:59:15;9.10;99.90
37310;DHT22;23195;47.744;7.358;2023-11-21T02:01:43;9.00;99.90
37310;DHT22;23195;47.744;7.358;2023-11-21T02:04:09;9.00;99.90
37310;DHT22;23195;47.744;7.358;2023-11-21T02:06:35;9.00;99.90
37310;DHT22;23195;47.744;7.358;2023-11-21T02:09:01;9.10;99.90
37310;DHT22;23195;47.744;7.358;2023-11-21T02:11:27;9.00;99.90
37310;DHT22;23195;47.744;7.358;2023-11-21T02:13:53;9.00;99.90
37310;DHT22;23195;47.744;7.358;2023-11-21T02:16:19;9.00;99.90
37310;DHT22;23195;47.744;7.358;2023-11-21T02:18:47;8.90;99.90
37310;DHT22;23195;47.744;7.358;2023-11-21T02:21:14;9.00;99.90
37310;DHT22;23195;47.744;7.358;2023-11-21T02:23:43;9.60;99.90
37310;DHT22;23195;47.744;7.358;2023-11-21T02:26:13;8.10;99.90
37310;DHT22;23195;47.744;7.358;2023-11-21T02:28:40;8.90;99.90
37310;DHT22;23195;47.744;7.358;2023-11-21T02:31:06;8.90;99.90
37310;DHT22;23195;47.744;7.358;2023-11-21T02:33:33;8.90;99.90
37310;DHT22;23195;47.744;7.358;2023-11-21T02:36:03;8.90;99.90
37310;DHT22;23195;47.744;7.358;2023-11-21T02:38:29;9.00;99.90
37310;DHT22;23195;47.744;7.358;2023-11-21T02:40:55;9.10;99.90
37310;DHT22;23195;47.744;7.358;2023-11-21T02:43:21;9.00;99.90
37310;DHT22;23195;47.744;7.358;2023-11-21T02:45:49;9.00;99.90
37310;DHT22;23195;47.744;7.358;2023-11-21T02:48:15;9.70;99.90
37310;DHT22;23195;47.744;7.358;2023-11-21T02:50:41;8.90;99.90
37310;DHT22;23195;47.744;7.358;2023-11-21T02:53:09;8.90;99.90
37310;DHT22;23195;47.744;7.358;2023-11-21T02:55:36;9.00;99.90
37310;DHT22;23195;47.744;7.358;2023-11-21T02:58:04;8.90;99.90
37310;DHT22;23195;47.744;7.358;2023-11-21T03:00:31;8.90;99.90
37310;DHT22;23195;47.744;7.358;2023-11-21T03:02:57;9.00;99.90
37310;DHT22;23195;47.744;7.358;2023-11-21T03:05:23;8.80;99.90
37310;DHT22;23195;47.744;7.358;2023-11-21T03:07:49;8.80;99.90
37310;DHT22;23195;47.744;7.358;2023-11-21T03:10:15;8.80;99.90
37310;DHT22;23195;47.744;7.358;2023-11-21T03:12:40;8.80;99.90
37310;DHT22;23195;47.744;7.358;2023-11-21T03:15:07;8.80;99.90
37310;DHT22;23195;47.744;7.358;2023-11-21T03:17:33;8.80;99.90
37310;DHT22;23195;47.744;7.358;2023-11-21T03:20:00;8.80;99.90
37310;DHT22;23195;47.744;7.358;2023-11-21T03:22:26;8.80;99.90
37310;DHT22;23195;47.744;7.358;2023-11-21T03:24:52;8.80;99.90
37310;DHT22;23195;47.744;7.358;2023-11-21T03:27:18;8.80;99.90
37310;DHT22;23195;47.744;7.358;2023-11-21T03:29:44;8.80;99.90
37310;DHT22;23195;47.744;7.358;2023-11-21T03:32:12;8.70;99.90
37310;DHT22;23195;47.744;7.358;2023-11-21T03:34:53;8.60;99.90
37310;DHT22;23195;47.744;7.358;2023-11-21T03:37:20;8.50;99.90
37310;DHT22;23195;47.744;7.358;2023-11-21T03:39:46;8.50;99.90
37310;DHT22;23195;47.744;7.358;2023-11-21T03:42:15;8.40;99.90
37310;DHT22;23195;47.744;7.358;2023-11-21T03:44:41;8.30;99.90
37310;DHT22;23195;47.744;7.358;2023-11-21T03:47:06;8.30;99.90
37310;DHT22;23195;47.744;7.358;2023-11-21T03:49:32;8.30;99.90
37310;DHT22;23195;47.744;7.358;2023-11-21T03:51:58;8.20;99.90
37310;DHT22;23195;47.744;7.358;2023-11-21T03:54:24;8.80;99.90
37310;DHT22;23195;47.744;7.358;2023-11-21T03:56:50;8.10;99.90
37310;DHT22;23195;47.744;7.358;2023-11-21T03:59:16;8.10;99.90
37310;DHT22;23195;47.744;7.358;2023-11-21T04:01:41;8.10;99.90
37310;DHT22;23195;47.744;7.358;2023-11-21T04:04:07;8.00;99.90
37310;DHT22;23195;47.744;7.358;2023-11-21T04:06:33;8.00;99.90
37310;DHT22;23195;47.744;7.358;2023-11-21T04:08:59;8.00;99.90
37310;DHT22;23195;47.744;7.358;2023-11-21T04:11:25;8.00;99.90
37310;DHT22;23195;47.744;7.358;2023-11-21T04:13:50;8.00;99.90
37310;DHT22;23195;47.744;7.358;2023-11-21T04:16:16;8.00;99.90
37310;DHT22;23195;47.744;7.358;2023-11-21T04:18:42;8.00;99.90
37310;DHT22;23195;47.744;7.358;2023-11-21T04:21:08;8.00;99.90
37310;DHT22;23195;47.744;7.358;2023-11-21T04:23:34;8.00;99.90
37310;DHT22;23195;47.744;7.358;2023-11-21T04:26:00;7.90;99.90
37310;DHT22;23195;47.744;7.358;2023-11-21T04:28:27;7.90;99.90
37310;DHT22;23195;47.744;7.358;2023-11-21T04:30:53;7.90;99.90
37310;DHT22;23195;47.744;7.358;2023-11-21T04:33:19;7.90;99.90
37310;DHT22;23195;47.744;7.358;2023-11-21T04:35:47;7.60;99.90
37310;DHT22;23195;47.744;7.358;2023-11-21T04:38:15;7.90;99.90
37310;DHT22;23195;47.744;7.358;2023-11-21T04:40:41;7.80;99.90
37310;DHT22;23195;47.744;7.358;2023-11-21T04:43:06;7.90;99.90
37310;DHT22;23195;47.744;7.358;2023-11-21T04:45:32;8.00;99.90
37310;DHT22;23195;47.744;7.358;2023-11-21T04:47:58;7.90;99.90
37310;DHT22;23195;47.744;7.358;2023-11-21T04:50:24;8.00;99.90
37310;DHT22;23195;47.744;7.358;2023-11-21T04:52:52;8.00;99.90
37310;DHT22;23195;47.744;7.358;2023-11-21T04:55:19;7.90;99.90
37310;DHT22;23195;47.744;7.358;2023-11-21T04:57:45;8.00;99.90
37310;DHT22;23195;47.744;7.358;2023-11-21T05:00:12;7.90;99.90
37310;DHT22;23195;47.744;7.358;2023-11-21T05:02:40;8.00;99.90
37310;DHT22;23195;47.744;7.358;2023-11-21T05:05:06;7.90;99.90
37310;DHT22;23195;47.744;7.358;2023-11-21T05:07:33;8.00;99.90
37310;DHT22;23195;47.744;7.358;2023-11-21T05:10:23;7.90;99.90
37310;DHT22;23195;47.744;7.358;2023-11-21T05:12:49;8.00;99.90
37310;DHT22;23195;47.744;7.358;2023-11-21T05:15:16;8.00;99.90
37310;DHT22;23195;47.744;7.358;2023-11-21T05:17:45;8.00;99.90
37310;DHT22;23195;47.744;7.358;2023-11-21T05:20:12;8.10;99.90
37310;DHT22;23195;47.744;7.358;2023-11-21T05:22:39;7.30;99.90
37310;DHT22;23195;47.744;7.358;2023-11-21T05:25:06;8.10;99.90
37310;DHT22;23195;47.744;7.358;2023-11-21T05:27:38;8.10;99.90
37310;DHT22;23195;47.744;7.358;2023-11-21T05:30:10;8.00;99.90
37310;DHT22;23195;47.744;7.358;2023-11-21T05:32:38;8.20;99.90
37310;DHT22;23195;47.744;7.358;2023-11-21T05:35:12;8.10;99.90
37310;DHT22;23195;47.744;7.358;2023-11-21T05:37:41;8.10;99.90
37310;DHT22;23195;47.744;7.358;2023-11-21T05:40:10;8.10;99.90
37310;DHT22;23195;47.744;7.358;2023-11-21T05:42:36;8.20;99.90
37310;DHT22;23195;47.744;7.358;2023-11-21T05:45:03;8.20;99.90
37310;DHT22;23195;47.744;7.358;2023-11-21T05:47:41;8.10;99.90
37310;DHT22;23195;47.744;7.358;2023-11-21T05:50:11;8.10;99.90
37310;DHT22;23195;47.744;7.358;2023-11-21T05:52:38;8.20;99.90
37310;DHT22;23195;47.744;7.358;2023-11-21T05:55:10;8.20;99.90
37310;DHT22;23195;47.744;7.358;2023-11-21T05:57:37;8.10;99.90
37310;DHT22;23195;47.744;7.358;2023-11-21T06:00:11;8.20;99.90
37310;DHT22;23195;47.744;7.358;2023-11-21T06:02:41;8.10;99.90
37310;DHT22;23195;47.744;7.358;2023-11-21T06:05:08;8.10;99.90
37310;DHT22;23195;47.744;7.358;2023-11-21T06:07:34;8.10;99.90
37310;DHT22;23195;47.744;7.358;2023-11-21T06:10:02;8.10;99.90
37310;DHT22;23195;47.744;7.358;2023-11-21T06:12:31;8.20;99.90
37310;DHT22;23195;47.744;7.358;2023-11-21T06:14:56;8.20;99.90
37310;DHT22;23195;47.744;7.358;2023-11-21T06:17:22;8.20;99.90
37310;DHT22;23195;47.744;7.358;2023-11-21T06:19:50;8.20;99.90
37310;DHT22;23195;47.744;7.358;2023-11-21T06:22:18;8.10;99.90
37310;DHT22;23195;47.744;7.358;2023-11-21T06:24:44;8.00;99.90
37310;DHT22;23195;47.744;7.358;2023-11-21T06:27:12;8.00;99.90
37310;DHT22;23195;47.744;7.358;2023-11-21T06:29:39;8.00;99.90
37310;DHT22;23195;47.744;7.358;2023-11-21T06:32:05;8.00;99.90
37310;DHT22;23195;47.744;7.358;2023-11-21T06:34:34;7.90;99.90
37310;DHT22;23195;47.744;7.358;2023-11-21T06:37:02;7.90;99.90
37310;DHT22;23195;47.744;7.358;2023-11-21T06:39:28;7.80;99.90
37310;DHT22;23195;47.744;7.358;2023-11-21T06:42:00;7.80;99.90
37310;DHT22;23195;47.744;7.358;2023-11-21T06:44:26;7.80;99.90
37310;DHT22;23195;47.744;7.358;2023-11-21T06:46:52;7.80;99.90
37310;DHT22;23195;47.744;7.358;2023-11-21T06:49:17;8.00;99.90
37310;DHT22;23195;47.744;7.358;2023-11-21T06:51:43;7.90;99.90
37310;DHT22;23195;47.744;7.358;2023-11-21T06:54:12;7.90;99.90
37310;DHT22;23195;47.744;7.358;2023-11-21T06:56:38;8.00;99.90
37310;DHT22;23195;47.744;7.358;2023-11-21T06:59:06;8.10;99.90
37310;DHT22;23195;47.744;7.358;2023-11-21T07:01:36;8.10;99.90
37310;DHT22;23195;47.744;7.358;2023-11-21T07:04:10;8.20;99.90
37310;DHT22;23195;47.744;7.358;2023-11-21T07:06:42;8.10;99.90
37310;DHT22;23195;47.744;7.358;2023-11-21T07:09:12;8.70;99.90
37310;DHT22;23195;47.744;7.358;2023-11-21T07:11:38;8.10;99.90
37310;DHT22;23195;47.744;7.358;2023-11-21T07:14:06;8.10;99.90
37310;DHT22;23195;47.744;7.358;2023-11-21T07:16:36;8.10;99.90
37310;DHT22;23195;47.744;7.358;2023-11-21T07:19:05;8.00;99.90
37310;DHT22;23195;47.744;7.358;2023-11-21T07:21:34;8.10;99.90
37310;DHT22;23195;47.744;7.358;2023-11-21T07:24:01;8.00;99.90
37310;DHT22;23195;47.744;7.358;2023-11-21T07:26:30;8.00;99.90
37310;DHT22;23195;47.744;7.358;2023-11-21T07:28:59;8.70;99.90
37310;DHT22;23195;47.744;7.358;2023-11-21T07:31:26;7.90;99.90
37310;DHT22;23195;47.744;7.358;2023-11-21T07:33:52;7.90;99.90
37310;DHT22;23195;47.744;7.358;2023-11-21T07:36:19;7.90;99.90
37310;DHT22;23195;47.744;7.358;2023-11-21T07:38:53;7.80;99.90
37310;DHT22;23195;47.744;7.358;2023-11-21T07:41:22;7.80;99.90
37310;DHT22;23195;47.744;7.358;2023-11-21T07:43:53;7.80;99.90
37310;DHT22;23195;47.744;7.358;2023-11-21T07:46:29;7.80;99.90
37310;DHT22;23195;47.744;7.358;2023-11-21T07:48:55;7.80;99.90
37310;DHT22;23195;47.744;7.358;2023-11-21T07:51:20;7.80;99.90
37310;DHT22;23195;47.744;7.358;2023-11-21T07:53:47;7.80;99.90
37310;DHT22;23195;47.744;7.358;2023-11-21T07:56:13;7.80;99.90
37310;DHT22;23195;47.744;7.358;2023-11-21T07:58:48;7.90;99.90
37310;DHT22;23195;47.744;7.358;2023-11-21T08:01:19;8.10;99.90
37310;DHT22;23195;47.744;7.358;2023-11-21T08:03:45;8.30;99.90
37310;DHT22;23195;47.744;7.358;2023-11-21T08:06:31;8.30;99.90
37310;DHT22;23195;47.744;7.358;2023-11-21T08:09:00;8.50;99.90
37310;DHT22;23195;47.744;7.358;2023-11-21T08:11:26;8.60;99.90
37310;DHT22;23195;47.744;7.358;2023-11-21T08:13:54;8.80;99.90
37310;DHT22;23195;47.744;7.358;2023-11-21T08:16:24;9.00;99.90
37310;DHT22;23195;47.744;7.358;2023-11-21T08:18:50;9.20;99.90
37310;DHT22;23195;47.744;7.358;2023-11-21T08:21:19;9.30;99.90
37310;DHT22;23195;47.744;7.358;2023-11-21T08:23:45;9.60;99.90
37310;DHT22;23195;47.744;7.358;2023-11-21T08:26:16;9.70;99.90
37310;DHT22;23195;47.744;7.358;2023-11-21T08:28:43;9.90;99.90
37310;DHT22;23195;47.744;7.358;2023-11-21T08:34:30;10.00;99.90
37310;DHT22;23195;47.744;7.358;2023-11-21T08:37:02;10.10;99.90
37310;DHT22;23195;47.744;7.358;2023-11-21T08:39:58;10.10;99.90
37310;DHT22;23195;47.744;7.358;2023-11-21T08:42:34;10.20;99.90
37310;DHT22;23195;47.744;7.358;2023-11-21T08:45:03;10.30;99.90
37310;DHT22;23195;47.744;7.358;2023-11-21T08:47:29;10.40;99.90
37310;DHT22;23195;47.744;7.358;2023-11-21T08:49:55;10.50;99.90
37310;DHT22;23195;47.744;7.358;2023-11-21T08:52:23;10.60;99.90
37310;DHT22;23195;47.744;7.358;2023-11-21T08:54:56;10.70;99.90
37310;DHT22;23195;47.744;7.358;2023-11-21T08:57:23;10.70;99.90
37310;DHT22;23195;47.744;7.358;2023-11-21T08:59:48;10.80;99.90
37310;DHT22;23195;47.744;7.358;2023-11-21T09:02:28;10.90;99.90
37310;DHT22;23195;47.744;7.358;2023-11-21T09:05:06;11.00;99.90
37310;DHT22;23195;47.744;7.358;2023-11-21T09:07:55;11.00;99.90
37310;DHT22;23195;47.744;7.358;2023-11-21T09:10:42;11.10;99.90
37310;DHT22;23195;47.744;7.358;2023-11-21T09:13:10;11.10;99.90
37310;DHT22;23195;47.744;7.358;2023-11-21T09:15:46;10.50;99.90
37310;DHT22;23195;47.744;7.358;2023-11-21T09:21:34;11.50;99.90
37310;DHT22;23195;47.744;7.358;2023-11-21T09:24:34;11.00;99.90
37310;DHT22;23195;47.744;7.358;2023-11-21T09:27:06;11.60;99.90
37310;DHT22;23195;47.744;7.358;2023-11-21T09:29:46;11.60;99.90
37310;DHT22;23195;47.744;7.358;2023-11-21T09:32:13;11.70;99.90
37310;DHT22;23195;47.744;7.358;2023-11-21T09:34:44;11.80;99.90
37310;DHT22;23195;47.744;7.358;2023-11-21T09:37:21;12.10;99.90
37310;DHT22;23195;47.744;7.358;2023-11-21T09:39:46;12.10;99.90
37310;DHT22;23195;47.744;7.358;2023-11-21T09:42:25;12.10;99.90
37310;DHT22;23195;47.744;7.358;2023-11-21T09:47:30;12.10;99.90
37310;DHT22;23195;47.744;7.358;2023-11-21T09:49:57;12.20;99.90
37310;DHT22;23195;47.744;7.358;2023-11-21T09:52:28;13.60;99.90
37310;DHT22;23195;47.744;7.358;2023-11-21T09:54:57;12.50;99.90
37310;DHT22;23195;47.744;7.358;2023-11-21T09:57:26;12.70;99.90
37310;DHT22;23195;47.744;7.358;2023-11-21T10:00:02;12.80;99.90
37310;DHT22;23195;47.744;7.358;2023-11-21T10:02:37;12.90;99.90
37310;DHT22;23195;47.744;7.358;2023-11-21T10:05:04;13.00;99.90
37310;DHT22;23195;47.744;7.358;2023-11-21T10:07:31;13.00;99.90
37310;DHT22;23195;47.744;7.358;2023-11-21T10:10:06;13.00;99.90
37310;DHT22;23195;47.744;7.358;2023-11-21T10:12:49;13.10;99.90
37310;DHT22;23195;47.744;7.358;2023-11-21T10:15:27;12.90;99.90
37310;DHT22;23195;47.744;7.358;2023-11-21T10:17:55;12.70;99.90
37310;DHT22;23195;47.744;7.358;2023-11-21T10:20:23;12.50;99.90
37310;DHT22;23195;47.744;7.358;2023-11-21T10:22:55;12.40;99.90
37310;DHT22;23195;47.744;7.358;2023-11-21T10:25:27;12.50;99.90
37310;DHT22;23195;47.744;7.358;2023-11-21T10:30:49;12.70;99.90
37310;DHT22;23195;47.744;7.358;2023-11-21T10:33:15;12.70;99.90
37310;DHT22;23195;47.744;7.358;2023-11-21T10:35:59;12.80;99.90
37310;DHT22;23195;47.744;7.358;2023-11-21T10:38:26;12.80;99.90
37310;DHT22;23195;47.744;7.358;2023-11-21T10:40:54;12.70;99.90
37310;DHT22;23195;47.744;7.358;2023-11-21T10:43:21;12.70;99.90
37310;DHT22;23195;47.744;7.358;2023-11-21T10:45:49;12.80;99.90
37310;DHT22;23195;47.744;7.358;2023-11-21T10:48:15;12.70;99.90
37310;DHT22;23195;47.744;7.358;2023-11-21T10:50:43;12.80;99.90
37310;DHT22;23195;47.744;7.358;2023-11-21T10:53:09;12.90;99.90
37310;DHT22;23195;47.744;7.358;2023-11-21T10:55:37;13.00;99.90
37310;DHT22;23195;47.744;7.358;2023-11-21T10:58:07;13.10;99.90
37310;DHT22;23195;47.744;7.358;2023-11-21T11:00:36;13.30;99.90
37310;DHT22;23195;47.744;7.358;2023-11-21T11:03:03;13.20;99.90
37310;DHT22;23195;47.744;7.358;2023-11-21T11:05:29;13.10;99.90
37310;DHT22;23195;47.744;7.358;2023-11-21T11:08:08;13.00;99.90
37310;DHT22;23195;47.744;7.358;2023-11-21T11:10:40;13.00;99.90
37310;DHT22;23195;47.744;7.358;2023-11-21T11:13:07;13.00;99.90
37310;DHT22;23195;47.744;7.358;2023-11-21T11:15:34;12.90;99.90
37310;DHT22;23195;47.744;7.358;2023-11-21T11:18:01;13.00;99.90
37310;DHT22;23195;47.744;7.358;2023-11-21T11:20:34;13.00;99.90
37310;DHT22;23195;47.744;7.358;2023-11-21T11:26:08;12.70;99.90
37310;DHT22;23195;47.744;7.358;2023-11-21T11:34:54;12.50;99.90
37310;DHT22;23195;47.744;7.358;2023-11-21T11:37:22;12.20;99.90
37310;DHT22;23195;47.744;7.358;2023-11-21T11:39:49;11.90;99.90
37310;DHT22;23195;47.744;7.358;2023-11-21T11:42:17;11.60;99.90
37310;DHT22;23195;47.744;7.358;2023-11-21T11:47:24;11.40;99.90
37310;DHT22;23195;47.744;7.358;2023-11-21T11:52:49;11.60;99.90
37310;DHT22;23195;47.744;7.358;2023-11-21T11:55:21;11.60;99.90
37310;DHT22;23195;47.744;7.358;2023-11-21T11:57:55;11.60;99.90
37310;DHT22;23195;47.744;7.358;2023-11-21T12:00:34;11.60;99.90
37310;DHT22;23195;47.744;7.358;2023-11-21T12:03:03;11.50;99.90
37310;DHT22;23195;47.744;7.358;2023-11-21T12:05:33;11.60;99.90
37310;DHT22;23195;47.744;7.358;2023-11-21T12:08:05;11.60;99.90
37310;DHT22;23195;47.744;7.358;2023-11-21T12:10:34;11.60;99.90
37310;DHT22;23195;47.744;7.358;2023-11-21T12:13:06;11.60;99.90
37310;DHT22;23195;47.744;7.358;2023-11-21T12:15:38;11.10;99.90
37310;DHT22;23195;47.744;7.358;2023-11-21T12:18:06;11.60;99.90
37310;DHT22;23195;47.744;7.358;2023-11-21T12:20:32;11.50;99.90
37310;DHT22;23195;47.744;7.358;2023-11-21T12:23:04;11.30;99.90
37310;DHT22;23195;47.744;7.358;2023-11-21T12:25:32;11.60;99.90
37310;DHT22;23195;47.744;7.358;2023-11-21T12:28:00;11.40;99.90
37310;DHT22;23195;47.744;7.358;2023-11-21T12:30:30;11.40;99.90
37310;DHT22;23195;47.744;7.358;2023-11-21T12:32:58;10.90;99.90
37310;DHT22;23195;47.744;7.358;2023-11-21T12:35:32;11.40;99.90
37310;DHT22;23195;47.744;7.358;2023-11-21T12:38:02;11.70;99.90
37310;DHT22;23195;47.744;7.358;2023-11-21T12:40:28;11.50;99.90
37310;DHT22;23195;47.744;7.358;2023-11-21T12:42:56;11.50;99.90
37310;DHT22;23195;47.744;7.358;2023-11-21T12:45:27;11.40;99.90
37310;DHT22;23195;47.744;7.358;2023-11-21T12:48:02;11.40;99.90
37310;DHT22;23195;47.744;7.358;2023-11-21T12:50:33;11.40;99.90
37310;DHT22;23195;47.744;7.358;2023-11-21T12:53:06;11.50;99.90
37310;DHT22;23195;47.744;7.358;2023-11-21T12:55:34;11.50;99.90
37310;DHT22;23195;47.744;7.358;2023-11-21T12:58:05;11.50;99.90
37310;DHT22;23195;47.744;7.358;2023-11-21T13:00:39;11.40;99.90
37310;DHT22;23195;47.744;7.358;2023-11-21T13:03:09;11.30;99.90
37310;DHT22;23195;47.744;7.358;2023-11-21T13:05:40;11.30;99.90
37310;DHT22;23195;47.744;7.358;2023-11-21T13:08:13;11.30;99.90
37310;DHT22;23195;47.744;7.358;2023-11-21T13:10:43;11.30;99.90
37310;DHT22;23195;47.744;7.358;2023-11-21T13:13:11;11.40;99.90
37310;DHT22;23195;47.744;7.358;2023-11-21T13:15:51;11.40;99.90
37310;DHT22;23195;47.744;7.358;2023-11-21T13:18:28;11.40;99.90
37310;DHT22;23195;47.744;7.358;2023-11-21T13:21:02;11.40;99.90
37310;DHT22;23195;47.744;7.358;2023-11-21T13:23:57;11.30;99.90
37310;DHT22;23195;47.744;7.358;2023-11-21T13:27:03;11.30;99.90
37310;DHT22;23195;47.744;7.358;2023-11-21T13:30:24;11.20;99.90
37310;DHT22;23195;47.744;7.358;2023-11-21T13:33:29;11.20;99.90
37310;DHT22;23195;47.744;7.358;2023-11-21T13:36:24;11.30;99.90
37310;DHT22;23195;47.744;7.358;2023-11-21T13:39:07;11.30;99.90
37310;DHT22;23195;47.744;7.358;2023-11-21T13:41:40;11.30;99.90
37310;DHT22;23195;47.744;7.358;2023-11-21T13:44:09;11.30;99.90
37310;DHT22;23195;47.744;7.358;2023-11-21T13:46:56;11.20;99.90
37310;DHT22;23195;47.744;7.358;2023-11-21T13:49:26;11.00;99.90
37310;DHT22;23195;47.744;7.358;2023-11-21T13:55:44;10.90;99.90
37310;DHT22;23195;47.744;7.358;2023-11-21T13:58:22;10.80;99.90
37310;DHT22;23195;47.744;7.358;2023-11-21T14:07:26;10.90;99.90
37310;DHT22;23195;47.744;7.358;2023-11-21T14:10:03;10.80;99.90
37310;DHT22;23195;47.744;7.358;2023-11-21T14:12:30;11.00;99.90
37310;DHT22;23195;47.744;7.358;2023-11-21T14:15:00;10.90;99.90
37310;DHT22;23195;47.744;7.358;2023-11-21T14:17:26;11.00;99.90
37310;DHT22;23195;47.744;7.358;2023-11-21T14:19:52;11.00;99.90
37310;DHT22;23195;47.744;7.358;2023-11-21T14:22:20;11.00;99.90
37310;DHT22;23195;47.744;7.358;2023-11-21T14:24:46;11.00;99.90
37310;DHT22;23195;47.744;7.358;2023-11-21T14:27:14;10.90;99.90
37310;DHT22;23195;47.744;7.358;2023-11-21T14:29:40;10.90;99.90
37310;DHT22;23195;47.744;7.358;2023-11-21T14:32:10;10.90;99.90
37310;DHT22;23195;47.744;7.358;2023-11-21T14:34:35;10.90;99.90
37310;DHT22;23195;47.744;7.358;2023-11-21T14:37:02;10.90;99.90
37310;DHT22;23195;47.744;7.358;2023-11-21T14:39:31;10.90;99.90
37310;DHT22;23195;47.744;7.358;2023-11-21T14:42:00;11.00;99.90
37310;DHT22;23195;47.744;7.358;2023-11-21T14:44:28;10.80;99.90
37310;DHT22;23195;47.744;7.358;2023-11-21T14:46:58;10.90;99.90
37310;DHT22;23195;47.744;7.358;2023-11-21T14:49:26;10.90;99.90
37310;DHT22;23195;47.744;7.358;2023-11-21T14:51:56;11.00;99.90
37310;DHT22;23195;47.744;7.358;2023-11-21T14:54:47;11.00;99.90
37310;DHT22;23195;47.744;7.358;2023-11-21T14:57:22;11.00;99.90
37310;DHT22;23195;47.744;7.358;2023-11-21T14:59:49;10.90;99.90
37310;DHT22;23195;47.744;7.358;2023-11-21T15:02:21;10.90;99.90
37310;DHT22;23195;47.744;7.358;2023-11-21T15:04:51;10.80;99.90
37310;DHT22;23195;47.744;7.358;2023-11-21T15:07:18;10.70;99.90
37310;DHT22;23195;47.744;7.358;2023-11-21T15:09:44;10.60;99.90
37310;DHT22;23195;47.744;7.358;2023-11-21T15:12:11;10.70;99.90
37310;DHT22;23195;47.744;7.358;2023-11-21T15:14:47;10.60;99.90
37310;DHT22;23195;47.744;7.358;2023-11-21T15:17:16;10.50;99.90
37310;DHT22;23195;47.744;7.358;2023-11-21T15:20:00;10.50;99.90
37310;DHT22;23195;47.744;7.358;2023-11-21T15:22:30;10.40;99.90
37310;DHT22;23195;47.744;7.358;2023-11-21T15:24:56;10.40;99.90
37310;DHT22;23195;47.744;7.358;2023-11-21T15:27:23;10.40;99.90
37310;DHT22;23195;47.744;7.358;2023-11-21T15:29:50;10.30;99.90
37310;DHT22;23195;47.744;7.358;2023-11-21T15:32:16;10.20;99.90
37310;DHT22;23195;47.744;7.358;2023-11-21T15:34:42;9.60;99.90
37310;DHT22;23195;47.744;7.358;2023-11-21T15:37:08;10.10;99.90
37310;DHT22;23195;47.744;7.358;2023-11-21T15:39:37;10.20;99.90
37310;DHT22;23195;47.744;7.358;2023-11-21T15:42:04;10.00;99.90
37310;DHT22;23195;47.744;7.358;2023-11-21T15:44:32;10.00;99.90
37310;DHT22;23195;47.744;7.358;2023-11-21T15:46:59;10.10;99.90
37310;DHT22;23195;47.744;7.358;2023-11-21T15:49:25;10.10;99.90
37310;DHT22;23195;47.744;7.358;2023-11-21T15:51:53;10.00;99.90
37310;DHT22;23195;47.744;7.358;2023-11-21T15:54:22;9.90;99.90
37310;DHT22;23195;47.744;7.358;2023-11-21T15:56:53;9.90;99.90
37310;DHT22;23195;47.744;7.358;2023-11-21T15:59:23;9.80;99.90
37310;DHT22;23195;47.744;7.358;2023-11-21T16:02:01;9.90;99.90
37310;DHT22;23195;47.744;7.358;2023-11-21T16:04:42;9.90;99.90
37310;DHT22;23195;47.744;7.358;2023-11-21T16:07:10;9.30;99.90
37310;DHT22;23195;47.744;7.358;2023-11-21T16:09:36;9.80;99.90
37310;DHT22;23195;47.744;7.358;2023-11-21T16:12:05;9.70;99.90
37310;DHT22;23195;47.744;7.358;2023-11-21T16:14:34;9.80;99.90
37310;DHT22;23195;47.744;7.358;2023-11-21T16:17:04;9.80;99.90
37310;DHT22;23195;47.744;7.358;2023-11-21T16:19:33;9.20;99.90
37310;DHT22;23195;47.744;7.358;2023-11-21T16:21:59;8.50;99.90
37310;DHT22;23195;47.744;7.358;2023-11-21T16:24:26;9.70;99.90
37310;DHT22;23195;47.744;7.358;2023-11-21T16:26:53;9.70;99.90
37310;DHT22;23195;47.744;7.358;2023-11-21T16:29:21;9.70;99.90
37310;DHT22;23195;47.744;7.358;2023-11-21T16:31:47;9.60;99.90